createdAt,value
2023-07-20T00:02:53.251Z,54.23
2023-07-20T00:05:26.049Z,54.25
2023-07-20T00:07:54.946Z,54.27
2023-07-20T00:10:23.554Z,54.32
2023-07-20T00:12:52.265Z,54.50
2023-07-20T00:15:20.901Z,54.65
2023-07-20T00:17:49.703Z,54.78
2023-07-20T00:20:18.984Z,54.90
2023-07-20T00:22:48.754Z,54.73
2023-07-20T00:25:17.508Z,54.76
2023-07-20T00:27:46.499Z,54.97
2023-07-20T00:30:15.900Z,55.11
2023-07-20T00:32:45.923Z,55.24
2023-07-20T00:35:15.342Z,55.32
2023-07-20T00:37:43.930Z,55.64
2023-07-20T00:40:14.018Z,55.66
2023-07-20T00:42:42.347Z,55.93
2023-07-20T00:45:11.302Z,56.16
2023-07-20T00:47:39.954Z,56.72
2023-07-20T00:50:09.860Z,56.81
2023-07-20T00:52:40.438Z,56.79
2023-07-20T00:55:11.248Z,57.19
2023-07-20T00:57:41.410Z,57.32
2023-07-20T01:00:11.010Z,57.50
2023-07-20T01:02:39.753Z,57.56
2023-07-20T01:05:10.038Z,57.65
2023-07-20T01:07:45.331Z,57.47
2023-07-20T01:10:19.692Z,57.95
2023-07-20T01:12:54.184Z,57.97
2023-07-20T01:15:22.946Z,58.54
2023-07-20T01:17:51.551Z,58.76
2023-07-20T01:20:24.420Z,59.01
2023-07-20T01:23:15.357Z,59.24
2023-07-20T01:26:04.452Z,59.14
2023-07-20T01:28:56.790Z,59.13
2023-07-20T01:31:28.349Z,59.54
2023-07-20T01:33:59.630Z,59.59
2023-07-20T01:36:35.190Z,59.42
2023-07-20T01:39:05.723Z,59.49
2023-07-20T01:41:34.975Z,59.78
2023-07-20T01:44:05.554Z,59.63
2023-07-20T01:46:35.273Z,59.93
2023-07-20T01:49:04.455Z,60.27
2023-07-20T01:51:34.354Z,60.10
2023-07-20T01:54:04.042Z,60.37
2023-07-20T01:56:32.765Z,60.50
2023-07-20T01:59:02.368Z,60.60
2023-07-20T02:01:31.181Z,60.67
2023-07-20T02:04:03.597Z,60.61
2023-07-20T02:06:32.424Z,60.96
2023-07-20T02:09:01.106Z,60.91
2023-07-20T02:11:30.031Z,60.95
2023-07-20T02:13:58.767Z,61.10
2023-07-20T02:16:27.545Z,61.12
2023-07-20T02:18:57.952Z,61.32
2023-07-20T02:21:27.976Z,61.41
2023-07-20T02:23:56.556Z,61.38
2023-07-20T02:26:25.283Z,61.31
2023-07-20T02:28:54.018Z,61.34
2023-07-20T02:31:22.624Z,61.67
2023-07-20T02:33:51.285Z,62.09
2023-07-20T02:36:20.326Z,61.91
2023-07-20T02:38:50.281Z,62.18
2023-07-20T02:41:18.883Z,62.31
2023-07-20T02:43:47.476Z,62.31
2023-07-20T02:46:16.281Z,62.33
2023-07-20T02:48:45.043Z,62.57
2023-07-20T02:51:14.372Z,62.66
2023-07-20T02:53:43.459Z,62.65
2023-07-20T02:56:13.429Z,62.68
2023-07-20T02:58:46.888Z,62.89
2023-07-20T03:01:16.633Z,63.01
2023-07-20T03:03:47.895Z,63.17
2023-07-20T03:06:16.877Z,63.28
2023-07-20T03:08:48.198Z,63.14
2023-07-20T03:11:18.453Z,63.37
2023-07-20T03:13:47.619Z,63.40
2023-07-20T03:16:22.019Z,63.63
2023-07-20T03:18:50.872Z,63.74
2023-07-20T03:21:19.679Z,63.85
2023-07-20T03:23:48.423Z,63.92
2023-07-20T03:26:18.352Z,64.06
2023-07-20T03:28:47.099Z,64.19
2023-07-20T03:31:16.640Z,64.14
2023-07-20T03:33:45.435Z,64.29
2023-07-20T03:36:14.232Z,64.42
2023-07-20T03:38:42.949Z,64.91
2023-07-20T03:41:13.131Z,64.89
2023-07-20T03:43:43.273Z,65.17
2023-07-20T03:46:11.956Z,65.07
2023-07-20T03:48:41.249Z,65.30
2023-07-20T03:51:09.575Z,65.60
2023-07-20T03:53:38.508Z,65.58
2023-07-20T03:56:07.477Z,66.14
2023-07-20T03:58:36.163Z,66.21
2023-07-20T04:01:05.808Z,66.36
2023-07-20T04:03:34.794Z,67.00
2023-07-20T04:06:03.611Z,67.33
2023-07-20T04:08:32.266Z,67.49
2023-07-20T04:11:03.090Z,67.60
2023-07-20T04:13:35.481Z,67.93
2023-07-20T04:16:05.725Z,68.26
2023-07-20T04:18:34.351Z,68.22
2023-07-20T04:21:02.935Z,68.56
2023-07-20T04:23:31.690Z,68.80
2023-07-20T04:26:00.430Z,69.25
2023-07-20T04:28:29.315Z,69.24
2023-07-20T04:31:11.168Z,69.43
2023-07-20T04:33:41.561Z,69.49
2023-07-20T04:36:10.572Z,69.80
2023-07-20T04:38:39.140Z,69.85
2023-07-20T04:41:21.936Z,69.93
2023-07-20T04:43:52.751Z,69.95
2023-07-20T04:46:32.322Z,70.12
2023-07-20T04:49:04.964Z,69.99
2023-07-20T04:51:38.021Z,70.17
2023-07-20T04:54:06.709Z,70.13
2023-07-20T04:56:38.521Z,69.86
2023-07-20T04:59:10.212Z,69.68
2023-07-20T05:01:38.949Z,69.50
2023-07-20T05:04:09.363Z,69.26
2023-07-20T05:06:39.872Z,69.18
2023-07-20T05:09:08.863Z,69.03
2023-07-20T05:11:37.713Z,68.55
2023-07-20T05:14:06.341Z,68.82
2023-07-20T05:16:35.137Z,68.87
2023-07-20T05:19:08.474Z,68.59
2023-07-20T05:21:37.322Z,68.70
2023-07-20T05:24:06.876Z,68.59
2023-07-20T05:26:35.668Z,68.72
2023-07-20T05:29:04.257Z,68.56
2023-07-20T05:31:33.222Z,68.41
2023-07-20T05:34:01.583Z,68.40
2023-07-20T05:36:32.109Z,68.45
2023-07-20T05:39:00.838Z,68.65
2023-07-20T05:41:29.410Z,68.44
2023-07-20T05:43:58.048Z,68.56
2023-07-20T05:46:29.619Z,68.69
2023-07-20T05:49:02.790Z,68.78
2023-07-20T05:51:34.713Z,68.60
2023-07-20T05:54:04.770Z,68.75
2023-07-20T05:56:33.580Z,68.67
2023-07-20T05:59:02.135Z,68.99
2023-07-20T06:01:30.744Z,68.90
2023-07-20T06:03:59.421Z,69.12
2023-07-20T06:06:28.022Z,68.89
2023-07-20T06:08:58.017Z,68.93
2023-07-20T06:11:26.654Z,68.67
2023-07-20T06:13:55.211Z,68.27
2023-07-20T06:16:23.681Z,68.13
2023-07-20T06:18:52.534Z,68.26
2023-07-20T06:21:21.110Z,67.99
2023-07-20T06:23:49.434Z,67.54
2023-07-20T06:26:21.183Z,67.71
2023-07-20T06:28:49.722Z,67.44
2023-07-20T06:31:18.615Z,67.09
2023-07-20T06:33:47.275Z,66.78
2023-07-20T06:36:15.875Z,66.92
2023-07-20T06:40:32.938Z,66.35
2023-07-20T06:44:06.180Z,66.27
2023-07-20T06:46:34.764Z,66.04
2023-07-20T06:51:34.881Z,65.54
2023-07-20T06:54:05.669Z,65.45
2023-07-20T06:56:36.108Z,65.26
2023-07-20T06:59:04.904Z,64.92
2023-07-20T07:01:33.516Z,64.67
2023-07-20T07:04:02.332Z,64.51
2023-07-20T07:06:31.399Z,64.21
2023-07-20T07:09:00.079Z,63.95
2023-07-20T07:11:29.000Z,63.69
2023-07-20T07:13:59.000Z,63.24
2023-07-20T07:16:27.733Z,62.68
2023-07-20T07:19:00.411Z,62.54
2023-07-20T07:21:29.606Z,62.45
2023-07-20T07:24:00.333Z,62.58
2023-07-20T07:26:28.942Z,62.62
2023-07-20T07:28:58.885Z,62.32
2023-07-20T07:31:28.054Z,62.18
2023-07-20T07:33:56.843Z,61.42
2023-07-20T07:36:25.532Z,60.54
2023-07-20T07:41:25.760Z,59.31
2023-07-20T07:43:54.347Z,58.89
2023-07-20T07:46:24.515Z,57.74
2023-07-20T07:48:54.089Z,56.88
2023-07-20T07:51:22.839Z,54.85
2023-07-20T07:53:51.578Z,53.28
2023-07-20T07:56:24.059Z,51.78
2023-07-20T07:58:53.596Z,51.45
2023-07-20T08:01:23.959Z,52.63
2023-07-20T08:03:52.943Z,53.45
2023-07-20T08:06:21.585Z,53.39
2023-07-20T08:08:50.484Z,52.78
2023-07-20T08:11:19.242Z,51.47
2023-07-20T08:13:47.867Z,50.82
2023-07-20T08:16:16.457Z,51.35
2023-07-20T08:18:46.689Z,51.57
2023-07-20T08:21:15.535Z,51.57
2023-07-20T08:23:44.171Z,52.10
2023-07-20T08:26:13.069Z,51.30
2023-07-20T08:28:41.565Z,50.12
2023-07-20T08:31:10.187Z,50.07
2023-07-20T08:33:38.786Z,49.96
2023-07-20T08:36:12.127Z,49.29
2023-07-20T08:38:40.985Z,48.12
2023-07-20T08:41:11.344Z,47.38
2023-07-20T08:43:43.182Z,46.48
2023-07-20T08:46:15.658Z,45.58
2023-07-20T08:48:45.266Z,45.02
2023-07-20T08:51:16.825Z,44.45
2023-07-20T08:53:47.660Z,43.92
2023-07-20T08:56:18.398Z,43.12
2023-07-20T08:58:47.914Z,42.64
2023-07-20T09:01:17.749Z,42.47
2023-07-20T09:03:48.202Z,41.99
2023-07-20T09:06:18.665Z,42.01
2023-07-20T09:08:47.273Z,41.40
2023-07-20T09:11:16.612Z,40.60
2023-07-20T09:13:45.223Z,40.43
2023-07-20T09:16:16.696Z,40.00
2023-07-20T09:18:45.361Z,39.72
2023-07-20T09:21:13.626Z,39.78
2023-07-20T09:23:43.329Z,38.98
2023-07-20T09:26:16.682Z,38.78
2023-07-20T09:28:48.007Z,38.72
2023-07-20T09:31:20.179Z,37.88
2023-07-20T09:36:58.851Z,36.90
2023-07-20T09:39:11.800Z,36.08
2023-07-20T09:41:46.211Z,35.61
2023-07-20T09:51:56.237Z,34.46
2023-07-20T09:54:29.368Z,34.54
2023-07-20T09:56:58.998Z,35.29
2023-07-20T09:59:29.188Z,35.69
2023-07-20T10:02:02.726Z,35.77
2023-07-20T10:04:31.615Z,35.85
2023-07-20T10:07:06.336Z,35.20
2023-07-20T10:09:41.843Z,34.84
2023-07-20T10:12:17.364Z,33.93
2023-07-20T10:14:54.976Z,33.92
2023-07-20T10:17:25.796Z,33.99
2023-07-20T10:19:59.180Z,34.21
2023-07-20T10:22:29.274Z,33.46
2023-07-20T10:25:01.873Z,33.27
2023-07-20T10:27:31.237Z,32.60
2023-07-20T10:30:01.524Z,32.10
2023-07-20T10:32:31.446Z,31.18
2023-07-20T10:35:00.382Z,31.04
2023-07-20T10:37:51.492Z,31.18
2023-07-20T10:40:35.440Z,31.48
2023-07-20T10:43:08.057Z,31.64
2023-07-20T10:45:46.300Z,31.60
2023-07-20T10:48:20.384Z,31.51
2023-07-20T10:51:14.402Z,31.80
2023-07-20T10:53:43.398Z,30.89
2023-07-20T10:56:15.068Z,29.84
2023-07-20T10:58:44.040Z,29.78
2023-07-20T11:01:16.977Z,29.08
2023-07-20T11:06:35.976Z,28.42
2023-07-20T11:09:15.860Z,28.69
2023-07-20T11:11:47.141Z,28.64
2023-07-20T11:14:24.108Z,28.64
2023-07-20T11:16:54.257Z,29.69
2023-07-20T11:22:03.978Z,30.83
2023-07-20T11:24:33.704Z,31.55
2023-07-20T11:27:03.929Z,31.76
2023-07-20T11:29:34.091Z,31.74
2023-07-20T11:32:05.177Z,32.37
2023-07-20T11:34:35.471Z,32.57
2023-07-20T11:39:36.910Z,32.98
2023-07-20T11:42:08.852Z,33.26
2023-07-20T11:44:38.010Z,33.62
2023-07-20T11:47:09.079Z,34.07
2023-07-20T11:49:38.887Z,34.30
2023-07-20T11:52:08.799Z,34.82
2023-07-20T11:54:39.977Z,34.99
2023-07-20T11:57:17.870Z,35.01
2023-07-20T11:59:58.288Z,34.79
2023-07-20T12:02:29.194Z,34.62
2023-07-20T12:04:58.749Z,34.18
2023-07-20T12:07:29.913Z,34.10
2023-07-20T12:10:09.777Z,33.96
2023-07-20T12:12:42.670Z,33.54
2023-07-20T12:15:18.734Z,32.84
2023-07-20T12:17:48.467Z,32.24
2023-07-20T12:20:28.298Z,31.14
2023-07-20T12:23:00.300Z,30.10
2023-07-20T12:25:39.454Z,29.37
2023-07-20T12:28:10.632Z,29.69
2023-07-20T12:30:40.213Z,30.06
2023-07-20T12:33:09.326Z,31.08
2023-07-20T12:35:38.026Z,31.30
2023-07-20T12:38:07.277Z,31.79
2023-07-20T12:40:37.720Z,31.77
2023-07-20T12:43:07.363Z,31.74
2023-07-20T12:45:38.214Z,32.24
2023-07-20T12:48:07.255Z,32.53
2023-07-20T12:50:35.827Z,32.67
2023-07-20T12:53:05.259Z,32.60
2023-07-20T12:55:33.933Z,33.14
2023-07-20T12:58:02.700Z,32.88
2023-07-20T13:00:31.449Z,32.77
2023-07-20T13:10:39.609Z,29.42
2023-07-20T13:13:08.161Z,28.74
2023-07-20T13:15:47.422Z,28.31
2023-07-20T13:18:17.299Z,27.66
2023-07-20T13:20:45.854Z,27.46
2023-07-20T13:23:14.426Z,26.85
2023-07-20T13:25:43.212Z,27.69
2023-07-20T13:28:11.773Z,28.27
2023-07-20T13:30:41.548Z,28.68
2023-07-20T13:33:13.670Z,28.81
2023-07-20T13:35:49.628Z,27.95
2023-07-20T13:38:19.442Z,27.38
2023-07-20T13:40:48.009Z,26.93
2023-07-20T13:43:16.988Z,26.99
2023-07-20T13:45:45.586Z,27.57
2023-07-20T13:48:17.919Z,28.52
2023-07-20T13:51:00.197Z,29.38
2023-07-20T13:58:34.539Z,29.85
2023-07-20T14:01:03.147Z,29.48
2023-07-20T14:03:31.872Z,29.57
2023-07-20T14:08:33.554Z,28.78
2023-07-20T14:13:46.731Z,28.67
2023-07-20T14:16:16.546Z,28.27
2023-07-20T14:18:49.749Z,27.35
2023-07-20T14:21:21.488Z,27.54
2023-07-20T14:23:53.960Z,28.29
2023-07-20T14:26:23.570Z,28.52
2023-07-20T14:28:52.451Z,29.07
2023-07-20T14:31:21.280Z,29.42
2023-07-20T14:33:49.778Z,29.97
2023-07-20T14:36:19.839Z,30.29
2023-07-20T14:38:48.405Z,30.38
2023-07-20T14:41:17.096Z,31.04
2023-07-20T14:43:46.559Z,30.99
2023-07-20T14:46:15.192Z,30.43
2023-07-20T14:48:43.840Z,28.98
2023-07-20T14:51:12.442Z,27.78
2023-07-20T14:53:42.038Z,26.84
2023-07-20T14:56:11.179Z,26.36
2023-07-20T14:58:39.819Z,26.42
2023-07-20T15:01:08.411Z,27.00
2023-07-20T15:03:37.030Z,27.14
2023-07-20T15:06:05.799Z,27.42
2023-07-20T15:08:34.330Z,26.72
2023-07-20T15:11:04.257Z,26.91
2023-07-20T15:13:32.824Z,26.19
2023-07-20T15:16:01.394Z,25.25
2023-07-20T15:18:45.313Z,25.13
2023-07-20T15:21:16.605Z,24.51
2023-07-20T15:23:45.553Z,24.27
2023-07-20T15:26:16.083Z,24.08
2023-07-20T15:28:44.762Z,24.37
2023-07-20T15:31:13.858Z,23.77
2023-07-20T15:33:42.728Z,24.73
2023-07-20T15:36:11.381Z,25.93
2023-07-20T15:38:42.510Z,26.68
2023-07-20T15:41:13.337Z,26.62
2023-07-20T15:43:43.787Z,25.63
2023-07-20T15:46:49.231Z,24.76
2023-07-20T15:49:18.849Z,24.34
2023-07-20T15:51:48.090Z,23.71
2023-07-20T15:54:17.173Z,24.36
2023-07-20T15:56:46.702Z,25.50
2023-07-20T15:59:18.562Z,26.66
2023-07-20T16:01:47.779Z,27.26
2023-07-20T16:04:16.889Z,26.83
2023-07-20T16:06:45.572Z,26.16
2023-07-20T16:09:15.884Z,25.63
2023-07-20T16:11:45.790Z,25.36
2023-07-20T16:14:16.686Z,25.74
2023-07-20T16:16:45.603Z,26.27
2023-07-20T16:19:14.229Z,26.82
2023-07-20T16:21:42.852Z,27.63
2023-07-20T16:24:11.720Z,27.66
2023-07-20T16:26:44.698Z,27.64
2023-07-20T16:34:18.886Z,28.89
2023-07-20T16:44:22.031Z,30.01
2023-07-20T16:49:23.701Z,30.22
2023-07-20T16:51:52.334Z,30.36
2023-07-20T16:54:20.960Z,30.23
2023-07-20T16:56:49.526Z,30.39
2023-07-20T16:59:19.105Z,30.40
2023-07-20T17:01:47.691Z,30.89
2023-07-20T17:04:17.733Z,30.98
2023-07-20T17:06:47.735Z,31.02
2023-07-20T17:09:16.959Z,31.30
2023-07-20T17:11:45.531Z,31.48
2023-07-20T17:14:14.136Z,31.83
2023-07-20T17:16:42.793Z,32.06
2023-07-20T17:19:11.448Z,32.33
2023-07-20T17:21:41.184Z,32.60
2023-07-20T17:24:11.324Z,33.03
2023-07-20T17:29:12.245Z,33.24
2023-07-20T17:31:40.960Z,33.24
2023-07-20T17:34:09.640Z,33.57
2023-07-20T17:39:10.977Z,33.85
2023-07-20T17:41:39.557Z,34.04
2023-07-20T17:44:09.217Z,34.16
2023-07-20T17:49:09.273Z,34.42
2023-07-20T17:51:37.811Z,34.13
2023-07-20T17:54:06.642Z,34.36
2023-07-20T17:56:36.668Z,34.37
2023-07-20T17:59:05.267Z,34.54
2023-07-20T18:01:34.028Z,34.72
2023-07-20T18:04:02.909Z,35.09
2023-07-20T18:06:31.202Z,35.04
2023-07-20T18:08:59.514Z,35.35
2023-07-20T18:11:28.127Z,35.34
2023-07-20T18:13:58.605Z,35.66
2023-07-20T18:16:27.264Z,35.49
2023-07-20T18:18:57.233Z,35.77
2023-07-20T18:21:25.847Z,35.76
2023-07-20T18:23:54.729Z,36.07
2023-07-20T18:26:23.338Z,36.07
2023-07-20T18:28:53.066Z,36.19
2023-07-20T18:31:23.666Z,36.18
2023-07-20T18:33:53.473Z,36.22
2023-07-20T18:36:21.842Z,36.42
2023-07-20T18:38:50.430Z,36.70
2023-07-20T18:41:19.118Z,36.81
2023-07-20T18:43:47.791Z,36.91
2023-07-20T18:46:18.018Z,36.72
2023-07-20T18:48:48.816Z,36.80
2023-07-20T18:51:17.445Z,36.96
2023-07-20T18:53:46.035Z,37.33
2023-07-20T18:56:14.651Z,37.61
2023-07-20T18:58:43.245Z,37.83
2023-07-20T19:01:11.905Z,37.96
2023-07-20T19:03:40.665Z,38.05
2023-07-20T19:06:10.413Z,37.83
2023-07-20T19:08:38.962Z,38.05
2023-07-20T19:13:38.933Z,38.57
2023-07-20T19:16:08.600Z,38.96
2023-07-20T19:18:39.169Z,39.18
2023-07-20T19:21:09.671Z,40.18
2023-07-20T19:23:38.237Z,41.08
2023-07-20T19:26:11.226Z,41.65
2023-07-20T19:28:40.741Z,41.96
2023-07-20T19:31:10.003Z,42.03
2023-07-20T19:33:38.893Z,42.05
2023-07-20T19:36:09.050Z,41.98
2023-07-20T19:38:37.819Z,41.84
2023-07-20T19:41:06.713Z,42.00
2023-07-20T19:43:35.497Z,41.83
2023-07-20T19:46:04.836Z,41.78
2023-07-20T19:48:33.561Z,41.67
2023-07-20T19:51:02.181Z,42.07
2023-07-20T19:53:32.926Z,41.74
2023-07-20T19:56:03.534Z,42.10
2023-07-20T19:58:34.499Z,42.00
2023-07-20T20:06:07.745Z,42.37
2023-07-20T20:08:37.861Z,42.35
2023-07-20T20:13:38.084Z,42.67
2023-07-20T20:16:07.024Z,42.72
2023-07-20T20:18:44.414Z,42.76
2023-07-20T20:21:13.644Z,42.75
2023-07-20T20:23:43.984Z,42.88
2023-07-20T20:26:12.653Z,42.96
2023-07-20T20:28:41.168Z,43.15
2023-07-20T20:31:09.837Z,42.98
2023-07-20T20:33:38.604Z,43.07
2023-07-20T20:36:07.887Z,43.23
2023-07-20T20:38:36.334Z,43.27
2023-07-20T20:41:08.880Z,43.24
2023-07-20T20:43:37.523Z,43.36
2023-07-20T20:46:06.653Z,43.50
2023-07-20T20:48:49.722Z,43.77
2023-07-20T20:51:18.324Z,43.82
2023-07-20T20:53:46.896Z,43.87
2023-07-20T20:56:16.965Z,44.11
2023-07-20T20:58:45.615Z,43.96
2023-07-20T21:01:14.218Z,44.10
2023-07-20T21:03:42.915Z,44.34
2023-07-20T21:06:11.350Z,44.40
2023-07-20T21:08:39.973Z,44.62
2023-07-20T21:11:08.860Z,44.79
2023-07-20T21:13:38.777Z,44.84
2023-07-20T21:16:07.698Z,45.05
2023-07-20T21:18:36.300Z,45.19
2023-07-20T21:21:05.571Z,45.17
2023-07-20T21:23:34.092Z,45.38
2023-07-20T21:26:02.712Z,45.37
2023-07-20T21:28:31.726Z,45.25
2023-07-20T21:31:06.032Z,45.62
2023-07-20T21:33:35.310Z,45.56
2023-07-20T21:36:05.957Z,45.66
2023-07-20T21:38:38.431Z,45.74
2023-07-20T21:41:07.354Z,46.04
2023-07-20T21:43:36.393Z,45.98
2023-07-20T21:46:06.474Z,46.04
2023-07-20T21:48:35.618Z,46.32
2023-07-20T21:51:04.251Z,46.22
2023-07-20T21:53:32.803Z,46.33
2023-07-20T21:56:01.400Z,46.38
2023-07-20T21:58:29.994Z,46.56
2023-07-20T22:00:59.630Z,46.61
2023-07-20T22:03:29.859Z,46.70
2023-07-20T22:05:58.692Z,46.57
2023-07-20T22:08:27.334Z,46.87
2023-07-20T22:10:56.273Z,46.89
2023-07-20T22:13:24.909Z,46.89
2023-07-20T22:15:53.488Z,46.91
2023-07-20T22:18:35.615Z,46.97
2023-07-20T22:21:06.825Z,47.16
2023-07-20T22:23:36.176Z,47.14
2023-07-20T22:26:04.966Z,47.35
2023-07-20T22:28:33.843Z,47.48
2023-07-20T22:31:02.957Z,47.57
2023-07-20T22:33:31.527Z,47.89
2023-07-20T22:36:00.108Z,47.91
2023-07-20T22:38:30.183Z,47.85
2023-07-20T22:40:58.794Z,48.01
2023-07-20T22:43:29.319Z,48.14
2023-07-20T22:45:58.191Z,48.30
2023-07-20T22:48:28.778Z,48.32
2023-07-20T22:50:59.832Z,48.47
2023-07-20T22:53:31.131Z,48.44
2023-07-20T22:55:59.837Z,48.73
2023-07-20T22:58:28.111Z,48.58
2023-07-20T23:00:56.916Z,48.73
2023-07-20T23:03:25.684Z,48.71
2023-07-20T23:05:54.598Z,48.67
2023-07-20T23:08:23.284Z,48.64
2023-07-20T23:10:53.737Z,48.91
2023-07-20T23:13:24.028Z,48.95
2023-07-20T23:15:52.676Z,49.19
2023-07-20T23:18:25.300Z,49.14
2023-07-20T23:20:54.814Z,49.31
2023-07-20T23:23:23.524Z,49.41
2023-07-20T23:25:55.594Z,49.46
2023-07-20T23:28:24.520Z,49.10
2023-07-20T23:30:53.101Z,49.01
2023-07-20T23:33:23.572Z,49.11
2023-07-20T23:35:52.529Z,49.06
2023-07-20T23:38:21.172Z,49.17
2023-07-20T23:40:49.854Z,49.23
2023-07-20T23:43:19.719Z,49.45
2023-07-20T23:45:48.313Z,49.39
2023-07-20T23:48:16.909Z,49.77
2023-07-20T23:50:45.166Z,49.57
2023-07-20T23:53:13.780Z,49.66
2023-07-20T23:55:42.623Z,49.65
2023-07-20T23:58:11.518Z,49.90
